createdAt,value
2023-01-28T00:00:54.906Z,13.23
2023-01-28T00:03:21.432Z,12.13
2023-01-28T00:05:47.774Z,13.27
2023-01-28T00:08:14.770Z,12.38
2023-01-28T00:10:43.091Z,13.20
2023-01-28T00:13:14.487Z,14.05
2023-01-28T00:15:41.012Z,12.98
2023-01-28T00:18:07.373Z,12.93
2023-01-28T00:20:35.298Z,12.82
2023-01-28T00:23:03.092Z,13.65
2023-01-28T00:25:29.673Z,12.60
2023-01-28T00:27:56.088Z,12.90
2023-01-28T00:30:22.630Z,13.80
2023-01-28T00:32:49.179Z,12.98
2023-01-28T00:35:16.144Z,14.05
2023-01-28T00:37:45.673Z,13.88
2023-01-28T00:40:12.529Z,15.02
2023-01-28T00:42:38.900Z,13.88
2023-01-28T00:45:05.591Z,13.57
2023-01-28T00:47:31.906Z,15.15
2023-01-28T00:49:58.320Z,13.77
2023-01-28T00:52:24.629Z,15.20
2023-01-28T00:54:51.010Z,14.43
2023-01-28T00:57:17.380Z,14.77
2023-01-28T00:59:43.808Z,14.55
2023-01-28T01:02:12.978Z,15.32
2023-01-28T01:04:41.014Z,14.23
2023-01-28T01:07:07.396Z,15.02
2023-01-28T01:09:33.792Z,15.05
2023-01-28T01:12:00.162Z,15.20
2023-01-28T01:14:26.519Z,16.33
2023-01-28T01:16:52.890Z,15.60
2023-01-28T01:19:19.248Z,14.65
2023-01-28T01:21:50.298Z,15.27
2023-01-28T01:24:16.849Z,15.55
2023-01-28T01:26:43.249Z,16.35
2023-01-28T01:29:09.820Z,16.40
2023-01-28T01:31:36.379Z,16.15
2023-01-28T01:34:02.793Z,15.90
2023-01-28T01:36:29.216Z,16.67
2023-01-28T01:38:55.845Z,17.20
2023-01-28T01:41:33.367Z,15.23
2023-01-28T01:44:05.692Z,14.68
2023-01-28T01:46:39.872Z,15.45
2023-01-28T01:51:37.907Z,14.73
2023-01-28T01:54:05.352Z,14.13
2023-01-28T01:56:38.532Z,14.40
2023-01-28T01:59:08.361Z,16.23
2023-01-28T02:01:34.699Z,15.50
2023-01-28T02:04:07.174Z,15.27
2023-01-28T02:06:36.206Z,15.85
2023-01-28T02:09:03.383Z,16.42
2023-01-28T02:11:33.439Z,15.07
2023-01-28T02:14:04.250Z,16.10
2023-01-28T02:16:32.464Z,15.55
2023-01-28T02:18:58.906Z,16.63
2023-01-28T02:21:31.319Z,17.48
2023-01-28T02:24:21.837Z,18.13
2023-01-28T02:27:14.591Z,16.42
2023-01-28T02:29:55.995Z,17.08
2023-01-28T02:32:29.661Z,17.25
2023-01-28T02:35:18.361Z,16.88
2023-01-28T02:37:53.553Z,16.27
2023-01-28T02:40:25.018Z,16.42
2023-01-28T02:42:51.498Z,17.08
2023-01-28T02:45:48.602Z,15.95
2023-01-28T02:48:16.591Z,16.50
2023-01-28T02:51:04.462Z,16.20
2023-01-28T02:53:43.928Z,16.38
2023-01-28T02:56:30.766Z,17.48
2023-01-28T02:59:28.114Z,16.65
2023-01-28T03:02:16.997Z,16.30
2023-01-28T03:04:49.930Z,16.27
2023-01-28T03:07:18.757Z,16.27
2023-01-28T03:09:48.518Z,15.93
2023-01-28T03:12:46.173Z,15.73
2023-01-28T03:16:07.031Z,15.15
2023-01-28T03:19:10.230Z,14.23
2023-01-28T03:22:01.541Z,15.00
2023-01-28T03:24:51.860Z,14.35
2023-01-28T03:27:43.728Z,14.05
2023-01-28T03:30:36.528Z,13.50
2023-01-28T03:33:23.282Z,14.27
2023-01-28T03:36:08.517Z,14.25
2023-01-28T03:38:42.099Z,14.55
2023-01-28T03:41:11.395Z,15.05
2023-01-28T03:43:38.192Z,15.02
2023-01-28T03:46:06.269Z,13.63
2023-01-28T03:48:32.737Z,12.73
2023-01-28T03:51:00.381Z,13.10
2023-01-28T03:53:28.117Z,12.70
2023-01-28T03:55:56.477Z,12.52
2023-01-28T03:58:26.998Z,12.85
2023-01-28T04:00:54.370Z,13.75
2023-01-28T04:03:22.000Z,13.30
2023-01-28T04:06:06.590Z,13.15
2023-01-28T04:08:33.163Z,11.70
2023-01-28T04:11:15.373Z,12.57
2023-01-28T04:13:46.363Z,12.32
2023-01-28T04:16:15.498Z,12.25
2023-01-28T04:18:42.991Z,11.98
2023-01-28T04:21:09.869Z,11.60
2023-01-28T04:23:36.262Z,12.10
2023-01-28T04:26:04.042Z,11.80
2023-01-28T04:28:30.491Z,10.95
2023-01-28T04:30:56.981Z,11.65
2023-01-28T04:33:23.477Z,11.65
2023-01-28T04:35:49.803Z,12.75
2023-01-28T04:38:16.151Z,13.32
2023-01-28T04:40:42.511Z,12.52
2023-01-28T04:43:09.065Z,12.68
2023-01-28T04:45:35.394Z,12.68
2023-01-28T04:48:01.804Z,12.98
2023-01-28T04:50:28.169Z,13.35
2023-01-28T04:52:54.487Z,12.95
2023-01-28T04:55:20.832Z,13.18
2023-01-28T04:57:48.620Z,13.45
2023-01-28T05:00:15.298Z,13.55
2023-01-28T05:02:41.709Z,13.80
2023-01-28T05:05:08.974Z,13.45
2023-01-28T05:07:36.036Z,14.70
2023-01-28T05:10:02.676Z,13.60
2023-01-28T05:12:30.290Z,14.52
2023-01-28T05:14:56.633Z,14.15
2023-01-28T05:17:22.986Z,13.38
2023-01-28T05:19:49.409Z,13.18
2023-01-28T05:22:15.765Z,12.50
2023-01-28T05:24:42.127Z,12.75
2023-01-28T05:27:08.527Z,12.43
2023-01-28T05:29:34.915Z,12.15
2023-01-28T05:32:01.314Z,12.80
2023-01-28T05:34:27.640Z,11.40
2023-01-28T05:36:54.005Z,12.38
2023-01-28T05:39:20.363Z,12.07
2023-01-28T05:41:46.662Z,11.93
2023-01-28T05:44:13.091Z,11.98
2023-01-28T05:46:45.184Z,12.00
2023-01-28T05:49:13.411Z,11.77
2023-01-28T05:51:40.110Z,11.68
2023-01-28T05:54:07.610Z,12.13
2023-01-28T05:56:34.989Z,12.77
2023-01-28T05:59:01.311Z,12.25
2023-01-28T06:01:27.725Z,12.35
2023-01-28T06:03:54.179Z,13.13
2023-01-28T06:06:20.707Z,12.88
2023-01-28T06:08:47.137Z,13.07
2023-01-28T06:11:13.508Z,12.73
2023-01-28T06:13:41.610Z,13.20
2023-01-28T06:16:08.761Z,13.48
2023-01-28T06:18:35.301Z,13.15
2023-01-28T06:21:01.657Z,13.57
2023-01-28T06:23:28.001Z,13.50
2023-01-28T06:25:55.542Z,13.98
2023-01-28T06:28:22.408Z,14.18
2023-01-28T06:30:49.623Z,15.15
2023-01-28T06:33:16.085Z,15.00
2023-01-28T06:35:42.821Z,14.13
2023-01-28T06:38:09.461Z,14.88
2023-01-28T06:40:35.906Z,15.15
2023-01-28T06:43:02.601Z,14.85
2023-01-28T06:45:29.294Z,14.18
2023-01-28T06:47:55.626Z,16.05
2023-01-28T06:50:21.950Z,14.68
2023-01-28T06:52:48.258Z,14.77
2023-01-28T06:55:14.608Z,14.32
2023-01-28T06:57:41.698Z,15.45
2023-01-28T07:00:10.547Z,14.52
2023-01-28T07:02:37.358Z,15.00
2023-01-28T07:05:04.725Z,15.15
2023-01-28T07:07:33.474Z,16.02
2023-01-28T07:09:59.872Z,16.30
2023-01-28T07:12:26.195Z,15.70
2023-01-28T07:14:52.632Z,14.70
2023-01-28T07:17:19.150Z,15.93
2023-01-28T07:19:45.549Z,15.40
2023-01-28T07:22:11.922Z,16.15
2023-01-28T07:24:38.292Z,15.77
2023-01-28T07:27:04.664Z,16.20
2023-01-28T07:29:30.999Z,15.35
2023-01-28T07:31:57.365Z,15.75
2023-01-28T07:34:23.750Z,15.20
2023-01-28T07:36:50.172Z,16.98
2023-01-28T07:39:16.504Z,16.02
2023-01-28T07:41:43.158Z,15.57
2023-01-28T07:44:09.531Z,15.95
2023-01-28T07:46:35.881Z,16.02
2023-01-28T07:49:02.256Z,16.02
2023-01-28T07:51:28.566Z,15.27
2023-01-28T07:53:54.963Z,14.73
2023-01-28T07:56:21.282Z,16.27
2023-01-28T07:58:49.999Z,15.85
2023-01-28T08:01:16.374Z,15.27
2023-01-28T08:03:42.722Z,15.68
2023-01-28T08:06:09.151Z,15.73
2023-01-28T08:08:35.494Z,16.20
2023-01-28T08:11:11.744Z,16.10
2023-01-28T08:13:38.104Z,16.58
2023-01-28T08:16:04.958Z,16.55
2023-01-28T08:18:31.947Z,16.52
2023-01-28T08:20:59.474Z,17.52
2023-01-28T08:23:27.135Z,17.20
2023-01-28T08:25:53.972Z,16.73
2023-01-28T08:28:21.571Z,16.77
2023-01-28T08:30:48.044Z,17.83
2023-01-28T08:33:16.034Z,16.58
2023-01-28T08:35:42.571Z,17.70
2023-01-28T08:38:11.695Z,17.95
2023-01-28T08:40:38.124Z,18.60
2023-01-28T08:43:05.457Z,18.05
2023-01-28T08:45:32.168Z,17.98
2023-01-28T08:48:04.166Z,18.75
2023-01-28T08:50:36.420Z,20.75
2023-01-28T08:53:06.634Z,19.95
2023-01-28T08:55:34.098Z,20.17
2023-01-28T08:58:05.873Z,19.77
2023-01-28T09:00:33.647Z,19.40
2023-01-28T09:03:00.136Z,20.92
2023-01-28T09:05:26.759Z,21.20
2023-01-28T09:07:53.216Z,22.02
2023-01-28T09:10:23.060Z,20.15
2023-01-28T09:12:49.382Z,21.17
2023-01-28T09:15:15.854Z,20.85
2023-01-28T09:17:42.311Z,20.75
2023-01-28T09:20:09.246Z,21.00
2023-01-28T09:22:35.769Z,19.52
2023-01-28T09:25:02.135Z,19.50
2023-01-28T09:27:28.585Z,21.23
2023-01-28T09:29:54.915Z,20.55
2023-01-28T09:32:21.265Z,19.85
2023-01-28T09:34:47.677Z,18.98
2023-01-28T09:37:14.565Z,20.40
2023-01-28T09:39:41.002Z,19.30
2023-01-28T09:42:42.128Z,19.70
2023-01-28T09:45:17.118Z,21.70
2023-01-28T09:47:59.994Z,19.67
2023-01-28T09:50:39.709Z,19.33
2023-01-28T09:53:13.621Z,20.00
2023-01-28T09:55:44.480Z,21.48
2023-01-28T09:58:15.686Z,20.13
2023-01-28T10:01:12.110Z,19.52
2023-01-28T10:03:44.446Z,19.92
2023-01-28T10:06:42.834Z,19.10
2023-01-28T10:09:28.138Z,19.30
2023-01-28T10:12:04.827Z,18.45
2023-01-28T10:14:58.399Z,18.10
2023-01-28T10:17:50.251Z,19.77
2023-01-28T10:20:26.981Z,18.70
2023-01-28T10:23:52.791Z,18.95
2023-01-28T10:26:25.155Z,17.88
2023-01-28T10:28:59.834Z,18.48
2023-01-28T10:31:32.262Z,17.75
2023-01-28T10:33:59.567Z,18.73
2023-01-28T10:36:26.390Z,18.23
2023-01-28T10:38:52.831Z,18.35
2023-01-28T10:41:21.591Z,18.85
2023-01-28T10:43:49.573Z,17.48
2023-01-28T10:46:22.116Z,18.40
2023-01-28T10:48:56.545Z,18.80
2023-01-28T10:51:39.925Z,16.73
2023-01-28T10:54:24.310Z,17.10
2023-01-28T10:59:27.356Z,16.83
2023-01-28T11:01:57.350Z,18.27
2023-01-28T11:04:30.242Z,16.90
2023-01-28T11:07:01.063Z,16.48
2023-01-28T11:09:33.323Z,16.85
2023-01-28T11:12:14.309Z,16.33
2023-01-28T11:14:51.192Z,16.88
2023-01-28T11:17:19.273Z,16.95
2023-01-28T11:19:46.190Z,16.48
2023-01-28T11:22:39.571Z,15.73
2023-01-28T11:25:19.683Z,16.25
2023-01-28T11:27:51.351Z,15.43
2023-01-28T11:30:40.615Z,16.13
2023-01-28T11:33:23.893Z,16.15
2023-01-28T11:36:03.976Z,16.83
2023-01-28T11:38:30.479Z,15.93
2023-01-28T11:40:58.634Z,15.88
2023-01-28T11:43:27.976Z,16.25
2023-01-28T11:46:13.062Z,15.57
2023-01-28T11:48:50.424Z,15.50
2023-01-28T11:51:30.141Z,16.02
2023-01-28T11:54:16.241Z,15.20
2023-01-28T11:56:52.058Z,15.32
2023-01-28T11:59:33.275Z,15.02
2023-01-28T12:02:24.582Z,14.77
2023-01-28T12:05:10.028Z,15.52
2023-01-28T12:07:52.298Z,14.60
2023-01-28T12:10:27.258Z,14.60
2023-01-28T12:13:34.164Z,14.38
2023-01-28T12:16:22.010Z,14.85
2023-01-28T12:18:57.467Z,16.40
2023-01-28T12:21:49.551Z,15.52
2023-01-28T12:24:39.422Z,16.20
2023-01-28T12:27:44.218Z,15.90
2023-01-28T12:30:51.065Z,16.45
2023-01-28T12:33:23.448Z,14.90
2023-01-28T12:36:23.971Z,15.48
2023-01-28T12:39:15.120Z,15.05
2023-01-28T12:41:50.511Z,16.20
2023-01-28T12:44:35.644Z,15.93
2023-01-28T12:47:08.202Z,15.75
2023-01-28T12:49:40.030Z,16.10
2023-01-28T12:52:24.837Z,16.42
2023-01-28T12:55:16.201Z,15.93
2023-01-28T12:57:43.787Z,16.10
2023-01-28T13:00:30.021Z,15.90
2023-01-28T13:03:10.821Z,16.05
2023-01-28T13:05:46.254Z,16.52
2023-01-28T13:08:26.061Z,16.13
2023-01-28T13:10:53.803Z,17.08
2023-01-28T13:13:20.154Z,16.08
2023-01-28T13:15:47.300Z,15.63
2023-01-28T13:18:33.894Z,16.42
2023-01-28T13:21:02.211Z,16.02
2023-01-28T13:23:32.174Z,14.70
2023-01-28T13:26:29.316Z,15.27
2023-01-28T13:29:16.576Z,14.82
2023-01-28T13:31:45.608Z,15.95
2023-01-28T13:34:36.294Z,16.30
2023-01-28T13:37:27.784Z,16.55
2023-01-28T13:40:02.144Z,17.20
2023-01-28T13:42:30.442Z,17.25
2023-01-28T13:45:08.660Z,17.92
2023-01-28T13:47:37.488Z,17.52
2023-01-28T13:50:15.418Z,18.63
2023-01-28T13:52:53.582Z,18.02
2023-01-28T13:55:42.425Z,17.45
2023-01-28T13:58:46.065Z,18.35
2023-01-28T14:01:40.302Z,18.05
2023-01-28T14:04:45.201Z,20.02
2023-01-28T14:07:39.681Z,17.63
2023-01-28T14:10:24.831Z,17.77
2023-01-28T14:13:06.982Z,19.98
2023-01-28T14:16:06.287Z,19.58
2023-01-28T14:18:38.599Z,18.88
2023-01-28T14:21:18.415Z,18.92
2023-01-28T14:23:49.039Z,18.05
2023-01-28T14:26:35.812Z,17.85
2023-01-28T14:29:10.966Z,18.15
2023-01-28T14:31:39.193Z,18.50
2023-01-28T14:34:12.745Z,17.50
2023-01-28T14:36:45.269Z,19.08
2023-01-28T14:39:30.991Z,17.98
2023-01-28T14:42:01.788Z,18.55
2023-01-28T14:44:31.161Z,19.27
2023-01-28T14:47:16.220Z,19.38
2023-01-28T14:50:07.391Z,19.98
2023-01-28T14:52:55.661Z,21.13
2023-01-28T14:55:56.073Z,20.33
2023-01-28T14:58:27.641Z,20.15
2023-01-28T15:00:56.758Z,16.85
2023-01-28T15:03:25.319Z,16.95
2023-01-28T15:06:04.029Z,17.85
2023-01-28T15:08:32.227Z,17.60
2023-01-28T15:11:00.705Z,19.70
2023-01-28T15:13:30.788Z,18.98
2023-01-28T15:16:00.686Z,18.13
2023-01-28T15:18:33.943Z,18.50
2023-01-28T15:21:01.833Z,17.77
2023-01-28T15:23:33.285Z,18.17
2023-01-28T15:26:04.354Z,18.67
2023-01-28T15:28:33.046Z,18.92
2023-01-28T15:30:59.837Z,18.30
2023-01-28T15:33:26.709Z,18.27
2023-01-28T15:35:55.318Z,18.73
2023-01-28T15:38:22.649Z,19.38
2023-01-28T15:40:56.324Z,17.13
2023-01-28T15:43:26.929Z,17.38
2023-01-28T15:45:55.934Z,16.27
2023-01-28T15:48:25.296Z,17.40
2023-01-28T15:51:01.402Z,31.65
2023-01-28T15:53:42.023Z,29.95
2023-01-28T15:56:11.027Z,18.88
2023-01-28T15:58:41.585Z,17.60
2023-01-28T16:01:08.034Z,18.33
2023-01-28T16:03:39.398Z,18.40
2023-01-28T16:06:13.370Z,19.70
2023-01-28T16:08:58.739Z,20.67
2023-01-28T16:11:30.184Z,18.98
2023-01-28T16:13:57.801Z,20.33
2023-01-28T16:16:34.183Z,22.58
2023-01-28T16:19:04.099Z,20.08
2023-01-28T16:21:45.389Z,21.83
2023-01-28T16:24:27.308Z,21.75
2023-01-28T16:26:59.241Z,20.75
2023-01-28T16:29:29.267Z,22.13
2023-01-28T16:31:59.619Z,20.95
2023-01-28T16:34:27.651Z,19.02
2023-01-28T16:36:58.286Z,21.15
2023-01-28T16:39:24.695Z,22.77
2023-01-28T16:41:51.501Z,20.30
2023-01-28T16:44:17.852Z,19.98
2023-01-28T16:46:44.415Z,18.90
2023-01-28T16:49:10.809Z,19.27
2023-01-28T16:51:40.697Z,21.52
2023-01-28T16:54:07.116Z,22.77
2023-01-28T16:56:45.314Z,20.63
2023-01-28T16:59:12.614Z,21.60
2023-01-28T17:01:39.549Z,19.90
2023-01-28T17:04:11.567Z,20.75
2023-01-28T17:06:39.157Z,19.85
2023-01-28T17:09:05.855Z,20.40
2023-01-28T17:11:33.348Z,21.20
2023-01-28T17:14:00.441Z,20.73
2023-01-28T17:16:27.331Z,21.02
2023-01-28T17:18:54.422Z,22.33
2023-01-28T17:21:21.300Z,20.13
2023-01-28T17:23:47.761Z,25.58
2023-01-28T17:26:15.949Z,21.70
2023-01-28T17:28:42.927Z,23.17
2023-01-28T17:31:14.102Z,22.10
2023-01-28T17:33:41.517Z,21.63
2023-01-28T17:36:08.490Z,23.42
2023-01-28T17:38:34.930Z,25.08
2023-01-28T17:41:08.053Z,24.25
2023-01-28T17:43:34.973Z,22.03
2023-01-28T17:46:09.609Z,23.30
2023-01-28T17:48:36.011Z,26.55
2023-01-28T17:51:02.358Z,28.58
2023-01-28T17:53:28.751Z,28.35
2023-01-28T17:55:55.251Z,26.65
2023-01-28T17:58:21.605Z,28.30
2023-01-28T18:00:48.072Z,27.88
2023-01-28T18:03:15.787Z,25.63
2023-01-28T18:05:42.386Z,27.42
2023-01-28T18:08:09.432Z,25.45
2023-01-28T18:10:36.007Z,25.88
2023-01-28T18:13:02.586Z,24.55
2023-01-28T18:15:28.976Z,23.27
2023-01-28T18:17:55.282Z,28.13
2023-01-28T18:20:21.627Z,27.45
2023-01-28T18:22:47.992Z,28.08
2023-01-28T18:25:17.155Z,25.92
2023-01-28T18:27:44.557Z,26.52
2023-01-28T18:30:11.471Z,25.50
2023-01-28T18:32:37.810Z,28.73
2023-01-28T18:35:06.438Z,25.88
2023-01-28T18:37:32.907Z,30.38
2023-01-28T18:39:59.300Z,29.13
2023-01-28T18:42:25.720Z,29.77
2023-01-28T18:44:52.050Z,28.73
2023-01-28T18:47:18.514Z,29.45
2023-01-28T18:49:44.926Z,28.10
2023-01-28T18:52:11.243Z,27.15
2023-01-28T18:54:37.664Z,28.80
2023-01-28T18:57:04.978Z,28.67
2023-01-28T18:59:32.118Z,28.48
2023-01-28T19:01:58.474Z,29.90
2023-01-28T19:04:24.895Z,29.15
2023-01-28T19:06:55.468Z,28.38
2023-01-28T19:09:21.859Z,28.65
2023-01-28T19:11:50.172Z,29.25
2023-01-28T19:14:17.301Z,28.70
2023-01-28T19:16:44.267Z,29.60
2023-01-28T19:19:10.929Z,33.70
2023-01-28T19:21:37.895Z,31.13
2023-01-28T19:24:09.396Z,28.25
2023-01-28T19:26:36.835Z,30.50
2023-01-28T19:29:06.794Z,32.83
2023-01-28T19:31:33.244Z,33.42
2023-01-28T19:34:00.622Z,29.80
2023-01-28T19:36:29.295Z,29.38
2023-01-28T19:39:00.387Z,28.48
2023-01-28T19:41:28.314Z,26.45
2023-01-28T19:43:55.769Z,27.13
2023-01-28T19:46:22.403Z,28.00
2023-01-28T19:48:48.792Z,31.80
2023-01-28T19:51:16.064Z,36.72
2023-01-28T19:53:44.225Z,35.13
2023-01-28T19:56:14.197Z,34.90
2023-01-28T19:58:43.269Z,33.17
2023-01-28T20:01:12.296Z,30.95
2023-01-28T20:03:39.189Z,32.78
2023-01-28T20:06:08.227Z,29.25
2023-01-28T20:08:34.574Z,29.67
2023-01-28T20:11:17.913Z,35.53
2023-01-28T20:13:46.285Z,33.63
2023-01-28T20:16:21.510Z,30.80
2023-01-28T20:18:53.361Z,33.58
2023-01-28T20:21:20.243Z,33.20
2023-01-28T20:23:48.108Z,31.38
2023-01-28T20:26:15.130Z,31.30
2023-01-28T20:28:41.732Z,29.83
2023-01-28T20:31:09.944Z,32.70
2023-01-28T20:33:36.870Z,30.30
2023-01-28T20:36:05.504Z,31.58
2023-01-28T20:38:35.870Z,29.08
2023-01-28T20:41:10.837Z,33.78
2023-01-28T20:43:38.723Z,31.60
2023-01-28T20:46:08.225Z,32.60
2023-01-28T20:48:34.707Z,32.75
2023-01-28T20:51:16.040Z,34.42
2023-01-28T20:53:43.119Z,35.97
2023-01-28T20:56:11.117Z,36.55
2023-01-28T20:58:37.455Z,36.20
2023-01-28T21:01:04.541Z,32.05
2023-01-28T21:03:31.462Z,32.50
2023-01-28T21:05:57.833Z,37.42
2023-01-28T21:08:24.242Z,28.80
2023-01-28T21:10:50.679Z,29.65
2023-01-28T21:13:17.152Z,30.00
2023-01-28T21:15:54.847Z,27.02
2023-01-28T21:18:22.121Z,31.40
2023-01-28T21:20:48.565Z,36.55
2023-01-28T21:23:15.734Z,30.20
2023-01-28T21:25:43.065Z,30.58
2023-01-28T21:28:10.950Z,28.38
2023-01-28T21:30:38.202Z,30.90
2023-01-28T21:33:04.649Z,30.17
2023-01-28T21:35:31.189Z,33.55
2023-01-28T21:37:57.588Z,29.55
2023-01-28T21:40:23.941Z,31.50
2023-01-28T21:42:54.097Z,29.00
2023-01-28T21:45:20.709Z,27.38
2023-01-28T21:47:47.070Z,30.52
2023-01-28T21:50:13.675Z,29.35
2023-01-28T21:52:40.498Z,32.00
2023-01-28T21:55:07.214Z,34.05
2023-01-28T21:57:33.540Z,33.05
2023-01-28T22:00:00.140Z,28.77
2023-01-28T22:02:26.567Z,31.95
2023-01-28T22:04:53.028Z,30.63
2023-01-28T22:07:20.057Z,30.80
2023-01-28T22:09:47.400Z,31.45
2023-01-28T22:12:15.132Z,32.97
2023-01-28T22:14:43.278Z,32.45
2023-01-28T22:17:11.608Z,30.38
2023-01-28T22:19:39.212Z,31.40
2023-01-28T22:22:07.061Z,28.85
2023-01-28T22:24:33.515Z,30.20
2023-01-28T22:26:59.962Z,28.00
2023-01-28T22:29:26.853Z,29.63
2023-01-28T22:31:53.953Z,32.75
2023-01-28T22:34:21.137Z,33.42
2023-01-28T22:36:47.845Z,33.40
2023-01-28T22:39:15.939Z,30.70
2023-01-28T22:41:43.819Z,33.83
2023-01-28T22:44:10.765Z,33.17
2023-01-28T22:46:37.411Z,29.02
2023-01-28T22:49:03.966Z,33.95
2023-01-28T22:51:33.205Z,28.30
2023-01-28T22:53:59.716Z,33.20
2023-01-28T22:56:27.986Z,36.42
2023-01-28T22:58:55.930Z,33.30
2023-01-28T23:01:22.786Z,29.90
2023-01-28T23:03:51.380Z,31.25
2023-01-28T23:06:20.114Z,31.88
2023-01-28T23:08:47.512Z,35.33
2023-01-28T23:11:15.330Z,34.33
2023-01-28T23:14:01.721Z,35.85
2023-01-28T23:16:49.566Z,33.33
2023-01-28T23:19:35.474Z,34.05
2023-01-28T23:22:20.722Z,37.80
2023-01-28T23:24:47.105Z,36.80
2023-01-28T23:27:13.418Z,35.63
2023-01-28T23:29:39.791Z,31.83
2023-01-28T23:32:10.705Z,30.38
2023-01-28T23:34:44.371Z,36.95
2023-01-28T23:37:15.030Z,34.63
2023-01-28T23:39:42.577Z,33.50
2023-01-28T23:42:11.516Z,34.78
2023-01-28T23:44:37.827Z,31.55
2023-01-28T23:47:04.205Z,32.92
2023-01-28T23:49:30.675Z,32.95
2023-01-28T23:51:57.005Z,34.33
2023-01-28T23:54:23.323Z,35.30
2023-01-28T23:56:49.727Z,33.03
2023-01-28T23:59:16.227Z,32.72
